Terminal Aerodrome Forecast
Issued by NWS

Home | Current Version | Previous Version | Text Only | Print | Product List | Glossary On
Versions: 1 2 3 4 5 6 7 8 9 10 11 12 13 14 15 16 17 18 19 20 21 22 23 24 25 26 27 28 29 30 31 32 33 34 35 36 37 38 39
000
FTAK31 PANC 161733
TAFAVD
TAF
PAVD 161733Z 1618/1718 VRB03KT 2SM -SN BR BKN010 OVC022
      TEMPO 1618/1622 1/2SM -SN FZFG BKN008 OVC018
     FM162200 VRB05KT 1/2SM SN FZFG BKN005 OVC012
     FM170400 VRB05KT 1SM -SHSN BR BKN005 OVC012
     FM171500 07004KT 3SM -SHSN BR BKN005 OVC012
      AMD LTD TO CLD VIS AND WIND=

USA.gov is the U.S. government's official web portal to all federal, state and local government web resources and services.